Time;durP1;ratioP1;P1;durP2;ratioP2;P2;SDS_P1;SDS_P2;PMS_P1;PMS_P2;Temp;Humidity;BMP_temperature;BMP_pressure;BME280_temperature;BME280_humidity;BME280_pressure;Samples;Min_cycle;Max_cycle;Signal;HPM_P1;HPM_P2
2022/11/23 00:00:29;;;;;;;16.57;13.70;;;;;21.40;98592.00;;;;2087939;28;20311;-49
2022/11/23 00:01:31;;;;;;;14.87;13.00;;;;;21.40;98592.00;;;;2087507;28;20212;-47
2022/11/23 00:02:32;;;;;;;16.25;13.75;;;;;21.40;98596.00;;;;2083507;28;20205;-49
2022/11/23 00:03:32;;;;;;;15.90;13.60;;;;;21.30;98590.00;;;;2079833;28;20944;-49
2022/11/23 00:04:32;;;;;;;16.30;13.40;;;;;21.30;98591.00;;;;2084961;28;20701;-48
2022/11/23 00:05:33;;;;;;;18.37;13.67;;;;;21.30;98594.00;;;;2087741;28;20600;-47
2022/11/23 00:06:33;;;;;;;17.60;12.70;;;;;21.30;98592.00;;;;2086757;28;20282;-48
2022/11/23 00:07:33;;;;;;;16.43;13.07;;;;;21.30;98592.00;;;;2086429;28;20213;-50
2022/11/23 00:08:34;;;;;;;15.83;12.93;;;;;21.30;98594.00;;;;2084620;28;20217;-49
2022/11/23 00:09:34;;;;;;;14.73;12.90;;;;;21.30;98592.00;;;;2087170;28;20215;-48
2022/11/23 00:10:34;;;;;;;15.47;13.20;;;;;21.30;98589.00;;;;2084100;28;20721;-48
2022/11/23 00:11:35;;;;;;;15.53;13.10;;;;;21.30;98596.00;;;;2079389;28;20244;-48
2022/11/23 00:12:35;;;;;;;13.83;11.43;;;;;21.30;98589.00;;;;2078679;28;20210;-48
2022/11/23 00:13:35;;;;;;;14.87;12.20;;;;;21.30;98591.00;;;;2079134;28;20205;-48
2022/11/23 00:14:36;;;;;;;15.10;12.00;;;;;21.30;98591.00;;;;2079684;28;20306;-48
2022/11/23 00:15:39;;;;;;;14.50;11.23;;;;;21.30;98595.00;;;;2087166;28;20213;-48
2022/11/23 00:16:39;;;;;;;14.25;11.80;;;;;21.30;98605.00;;;;2086894;28;20275;-48
2022/11/23 00:17:39;;;;;;;14.20;12.17;;;;;21.30;98599.00;;;;2084381;28;20243;-49
2022/11/23 00:18:40;;;;;;;12.87;10.47;;;;;21.30;98597.00;;;;2079573;28;20279;-48
2022/11/23 00:19:40;;;;;;;14.20;11.40;;;;;21.20;98604.00;;;;2083204;28;20307;-49
2022/11/23 00:20:40;;;;;;;13.00;11.20;;;;;21.30;98597.00;;;;2082845;28;20237;-48
2022/11/23 00:21:41;;;;;;;11.57;9.53;;;;;21.30;98595.00;;;;2084827;28;20258;-48
2022/11/23 00:22:41;;;;;;;12.37;9.90;;;;;21.30;98601.00;;;;2086616;28;20209;-48
2022/11/23 00:23:41;;;;;;;13.57;10.97;;;;;21.30;98603.00;;;;2087744;28;20292;-49
2022/11/23 00:24:42;;;;;;;14.57;11.03;;;;;21.20;98603.00;;;;2087171;28;20667;-47
2022/11/23 00:25:45;;;;;;;13.27;10.27;;;;;21.20;98609.00;;;;2086960;28;20248;-47
2022/11/23 00:26:46;;;;;;;12.10;9.60;;;;;21.20;98596.00;;;;2087637;28;20270;-48
2022/11/23 00:27:46;;;;;;;12.33;10.40;;;;;21.30;98616.00;;;;2087664;28;20978;-49
2022/11/23 00:28:46;;;;;;;13.03;9.90;;;;;21.20;98616.00;;;;2086327;28;20641;-49
2022/11/23 00:29:47;;;;;;;11.80;9.87;;;;;21.20;98609.00;;;;2086038;28;20769;-51
2022/11/23 00:30:49;;;;;;;11.00;9.20;;;;;21.20;98611.00;;;;2080455;28;20256;-50
2022/11/23 00:31:49;;;;;;;11.23;9.70;;;;;21.20;98610.00;;;;2077695;28;20221;-50
2022/11/23 00:32:49;;;;;;;13.17;10.30;;;;;21.20;98609.00;;;;2078545;28;20214;-47
2022/11/23 00:33:51;;;;;;;11.43;9.30;;;;;21.20;98611.00;;;;2078399;28;20216;-48
2022/11/23 00:34:51;;;;;;;12.32;10.05;;;;;21.20;98609.00;;;;2078440;28;20225;-48
2022/11/23 00:36:18;;;;;;;10.97;8.63;;;;;21.20;98610.00;;;;2078979;28;20681;-49
2022/11/23 00:37:18;;;;;;;11.40;8.52;;;;;21.20;98610.00;;;;2076431;28;20309;-48
2022/11/23 00:38:18;;;;;;;11.30;8.80;;;;;21.20;98609.00;;;;2078975;28;20217;-49
2022/11/23 00:39:19;;;;;;;11.10;9.07;;;;;21.20;98603.00;;;;2079377;28;20240;-49
2022/11/23 00:40:19;;;;;;;10.70;9.10;;;;;21.10;98604.00;;;;2079321;28;20217;-49
2022/11/23 00:41:21;;;;;;;11.60;8.77;;;;;21.10;98609.00;;;;2079097;28;20221;-49
2022/11/23 00:42:21;;;;;;;11.38;8.48;;;;;21.10;98605.00;;;;2077707;28;20210;-49
2022/11/23 00:43:22;;;;;;;11.40;8.90;;;;;21.10;98612.00;;;;2078744;28;20233;-48
2022/11/23 00:44:22;;;;;;;11.70;9.17;;;;;21.10;98605.00;;;;2079250;28;20219;-49
2022/11/23 00:45:22;;;;;;;9.67;8.10;;;;;21.10;98607.00;;;;2079310;28;20230;-47
2022/11/23 00:46:24;;;;;;;9.70;7.87;;;;;21.10;98607.00;;;;2079188;28;20244;-48
2022/11/23 00:47:24;;;;;;;10.55;8.30;;;;;21.10;98613.00;;;;2079363;28;20564;-50
2022/11/23 00:48:24;;;;;;;10.73;8.03;;;;;21.10;98610.00;;;;2079056;28;20272;-48
2022/11/23 00:49:25;;;;;;;9.20;7.67;;;;;21.10;98602.00;;;;2079060;28;20218;-48
2022/11/23 00:50:25;;;;;;;9.03;7.33;;;;;21.10;98610.00;;;;2079265;28;20267;-48
2022/11/23 00:51:27;;;;;;;9.70;7.40;;;;;21.10;98607.00;;;;2078050;28;20221;-48
2022/11/23 00:52:28;;;;;;;8.27;7.13;;;;;21.10;98610.00;;;;2076907;28;20217;-50
2022/11/23 00:53:28;;;;;;;8.97;6.90;;;;;21.10;98609.00;;;;2078597;28;20229;-49
2022/11/23 00:54:28;;;;;;;8.97;6.90;;;;;21.10;98622.00;;;;2079338;28;20214;-49
2022/11/23 00:55:29;;;;;;;9.13;7.50;;;;;21.10;98616.00;;;;2082159;28;20211;-47
2022/11/23 00:56:29;;;;;;;9.30;7.40;;;;;21.10;98619.00;;;;2079156;28;20213;-48
2022/11/23 00:57:30;;;;;;;8.53;7.27;;;;;21.10;98618.00;;;;2079227;28;20251;-50
2022/11/23 00:58:30;;;;;;;9.27;7.33;;;;;21.10;98616.00;;;;2078379;28;20218;-51
2022/11/23 00:59:30;;;;;;;8.00;6.90;;;;;21.10;98620.00;;;;2078645;28;20218;-50
2022/11/23 01:00:31;;;;;;;9.10;7.37;;;;;21.00;98621.00;;;;2085425;28;20228;-48
2022/11/23 01:01:32;;;;;;;9.10;7.00;;;;;21.00;98620.00;;;;2087112;28;20212;-48
2022/11/23 01:02:34;;;;;;;9.50;6.88;;;;;21.00;98617.00;;;;2086561;28;20216;-48
2022/11/23 01:03:36;;;;;;;9.10;6.60;;;;;21.00;98620.00;;;;2086206;28;20217;-50
2022/11/23 01:04:38;;;;;;;9.25;6.32;;;;;20.90;98621.00;;;;2087109;28;20826;-50
2022/11/23 01:05:38;;;;;;;8.38;6.70;;;;;21.00;98619.00;;;;2082662;28;20233;-49
2022/11/23 01:06:38;;;;;;;8.00;6.23;;;;;21.00;98619.00;;;;2079116;28;20264;-49
2022/11/23 01:07:39;;;;;;;7.77;6.43;;;;;21.00;98621.00;;;;2078564;28;20564;-50
2022/11/23 01:08:40;;;;;;;7.93;6.50;;;;;21.00;98625.00;;;;2079053;28;20236;-49
2022/11/23 01:09:40;;;;;;;8.32;6.70;;;;;21.00;98625.00;;;;2082776;28;20566;-48
2022/11/23 01:10:40;;;;;;;7.80;6.33;;;;;21.00;98630.00;;;;2086874;28;20227;-48
2022/11/23 01:11:41;;;;;;;7.40;6.10;;;;;21.00;98628.00;;;;2087088;28;20209;-50
2022/11/23 01:12:41;;;;;;;8.17;6.00;;;;;21.00;98637.00;;;;2086175;28;20701;-49
2022/11/23 01:13:42;;;;;;;7.90;6.07;;;;;21.00;98634.00;;;;2082254;28;20221;-49
2022/11/23 01:14:42;;;;;;;6.93;6.20;;;;;21.00;98633.00;;;;2078241;28;20214;-48
2022/11/23 01:15:49;;;;;;;6.63;5.87;;;;;21.00;98633.00;;;;2078920;28;20215;-48
2022/11/23 01:16:49;;;;;;;7.00;5.85;;;;;21.00;98641.00;;;;2077917;28;20765;-49
2022/11/23 01:17:50;;;;;;;6.83;5.33;;;;;21.00;98642.00;;;;2077845;28;20206;-49
2022/11/23 01:19:11;;;;;;;6.90;5.47;;;;;21.00;98648.00;;;;2078651;28;20202;-49
2022/11/23 01:20:11;;;;;;;7.10;4.97;;;;;21.00;98642.00;;;;2083179;28;20772;-49
2022/11/23 01:21:12;;;;;;;7.77;6.00;;;;;21.00;98647.00;;;;2086650;28;20228;-49
2022/11/23 01:22:12;;;;;;;6.67;4.87;;;;;21.00;98639.00;;;;2085656;28;20217;-48
2022/11/23 01:23:12;;;;;;;8.40;6.13;;;;;21.00;98645.00;;;;2085855;28;20225;-48
2022/11/23 01:24:14;;;;;;;5.70;5.00;;;;;20.90;98638.00;;;;2086782;28;20256;-49
2022/11/23 01:25:15;;;;;;;6.53;5.20;;;;;21.00;98649.00;;;;2087111;28;20231;-50
2022/11/23 01:26:15;;;;;;;6.47;5.10;;;;;20.90;98643.00;;;;2086921;28;20225;-48
2022/11/23 01:27:15;;;;;;;7.13;5.47;;;;;20.90;98644.00;;;;2077530;28;20244;-49
2022/11/23 01:28:16;;;;;;;7.40;5.27;;;;;21.00;98644.00;;;;2078675;28;20217;-49
2022/11/23 01:29:16;;;;;;;6.53;4.83;;;;;20.90;98646.00;;;;2078886;28;20224;-50
2022/11/23 01:30:16;;;;;;;6.87;4.93;;;;;20.90;98649.00;;;;2078956;28;20213;-48
2022/11/23 01:31:21;;;;;;;7.40;4.67;;;;;20.90;98651.00;;;;2078912;28;20241;-49
2022/11/23 01:32:21;;;;;;;6.53;5.72;;;;;20.90;98656.00;;;;2077605;28;20725;-48
2022/11/23 01:33:21;;;;;;;8.07;5.17;;;;;20.90;98660.00;;;;2078984;28;20232;-47
2022/11/23 01:34:22;;;;;;;5.00;4.27;;;;;21.00;98651.00;;;;2078837;28;20209;-47
2022/11/23 01:35:22;;;;;;;6.37;4.83;;;;;21.00;98657.00;;;;2079085;28;20241;-50
2022/11/23 01:36:25;;;;;;;5.43;4.37;;;;;21.00;98653.00;;;;2078851;28;20240;-49
2022/11/23 01:37:25;;;;;;;5.60;4.28;;;;;21.00;98647.00;;;;2077926;28;20220;-49
2022/11/23 01:38:26;;;;;;;5.30;4.10;;;;;20.90;98655.00;;;;2078153;28;20236;-48
2022/11/23 01:39:26;;;;;;;6.00;4.60;;;;;20.90;98653.00;;;;2086903;28;20209;-48
2022/11/23 01:40:26;;;;;;;6.33;4.80;;;;;20.90;98655.00;;;;2086969;28;20311;-50
2022/11/23 01:41:38;;;;;;;6.70;4.80;;;;;20.90;98649.00;;;;2087020;28;20209;-49
2022/11/23 01:42:55;;;;;;;6.03;4.47;;;;;20.90;98651.00;;;;2086366;28;20213;-47
2022/11/23 01:43:56;;;;;;;4.25;3.80;;;;;20.90;98652.00;;;;2085780;28;20212;-49
2022/11/23 01:45:28;;;;;;;4.77;3.83;;;;;20.90;98645.00;;;;2087171;28;20212;-49
2022/11/23 01:46:28;;;;;;;5.43;3.83;;;;;20.90;98657.00;;;;2086001;28;20216;-47
2022/11/23 01:47:28;;;;;;;6.57;4.20;;;;;20.80;98654.00;;;;2077491;28;21778;-47
2022/11/23 01:48:58;;;;;;;5.50;3.90;;;;;20.90;98646.00;;;;2086120;28;20231;-49
2022/11/23 01:49:58;;;;;;;4.55;3.80;;;;;20.90;98647.00;;;;2078707;28;20244;-49
2022/11/23 01:51:00;;;;;;;5.73;4.30;;;;;20.90;98648.00;;;;2073345;28;20709;-49
2022/11/23 01:52:05;;;;;;;6.10;4.22;;;;;20.90;98646.00;;;;2077126;28;20866;-47
2022/11/23 01:53:05;;;;;;;4.13;3.58;;;;;20.90;98643.00;;;;2062177;28;20317;-47
2022/11/23 01:54:10;;;;;;;5.73;4.20;;;;;20.90;98647.00;;;;2061576;28;20214;-50
2022/11/23 01:55:11;;;;;;;5.43;3.90;;;;;20.80;98650.00;;;;2077240;28;20559;-51
2022/11/23 01:56:14;;;;;;;4.60;3.83;;;;;20.90;98648.00;;;;2078253;28;20224;-50
2022/11/23 01:57:20;;;;;;;5.18;4.20;;;;;20.90;98654.00;;;;2069735;28;20573;-49
2022/11/23 01:58:21;;;;;;;4.40;3.47;;;;;20.80;98649.00;;;;2077930;28;20231;-48
2022/11/23 01:59:21;;;;;;;4.70;3.90;;;;;20.80;98653.00;;;;2077956;28;20220;-47
2022/11/23 02:00:21;;;;;;;5.90;3.93;;;;;20.80;98650.00;;;;2078503;28;20213;-48
2022/11/23 02:01:22;;;;;;;4.60;3.70;;;;;20.80;98650.00;;;;2078394;28;20210;-50
2022/11/23 02:02:22;;;;;;;4.50;3.30;;;;;20.80;98649.00;;;;2077880;28;20241;-49
2022/11/23 02:03:22;;;;;;;4.63;3.90;;;;;20.90;98648.00;;;;2078952;28;20205;-48
2022/11/23 02:04:24;;;;;;;4.40;2.93;;;;;20.80;98656.00;;;;2079658;28;20217;-48
2022/11/23 02:05:31;;;;;;;7.05;3.80;;;;;20.80;98654.00;;;;2079543;28;20222;-48
2022/11/23 02:06:31;;;;;;;4.90;3.53;;;;;20.80;98656.00;;;;2084879;28;20209;-46
2022/11/23 02:07:31;;;;;;;5.60;3.70;;;;;20.80;98648.00;;;;2073794;28;20783;-46
2022/11/23 02:08:32;;;;;;;4.97;3.27;;;;;20.80;98656.00;;;;2071580;28;20600;-47
2022/11/23 02:09:32;;;;;;;5.00;3.53;;;;;20.80;98663.00;;;;2079898;28;21648;-49
2022/11/23 02:10:32;;;;;;;4.20;3.10;;;;;20.80;98665.00;;;;2080695;28;20265;-49
2022/11/23 02:11:33;;;;;;;5.20;3.07;;;;;20.80;98658.00;;;;2087993;28;20632;-47
2022/11/23 02:12:33;;;;;;;4.77;3.30;;;;;20.80;98669.00;;;;2084917;28;20225;-48
2022/11/23 02:13:33;;;;;;;5.03;3.40;;;;;20.80;98656.00;;;;2080487;28;20221;-49
2022/11/23 02:14:34;;;;;;;4.30;2.80;;;;;20.80;98657.00;;;;2079721;28;20256;-49
2022/11/23 02:15:34;;;;;;;4.43;3.10;;;;;20.80;98666.00;;;;2081259;28;20319;-47
2022/11/23 02:16:35;;;;;;;3.80;2.77;;;;;20.80;98663.00;;;;2088383;28;20217;-50
2022/11/23 02:17:36;;;;;;;5.18;3.20;;;;;20.80;98665.00;;;;2087907;28;20220;-48
2022/11/23 02:18:36;;;;;;;4.03;2.80;;;;;20.80;98663.00;;;;2087857;28;20280;-50
2022/11/23 02:19:42;;;;;;;4.23;2.97;;;;;20.80;98667.00;;;;2077881;28;20217;-50
2022/11/23 02:20:43;;;;;;;4.57;3.10;;;;;20.80;98670.00;;;;2072429;28;20580;-47
2022/11/23 02:21:43;;;;;;;3.10;2.20;;;;;20.80;98671.00;;;;2080271;28;20312;-48
2022/11/23 02:23:17;;;;;;;3.70;2.93;;;;;20.80;98673.00;;;;2079084;28;20470;-47
2022/11/23 02:24:22;;;;;;;4.00;3.38;;;;;20.80;98675.00;;;;2086192;28;20228;-48
2022/11/23 02:25:32;;;;;;;2.80;2.50;;;;;20.80;98669.00;;;;2074961;28;20218;-47
2022/11/23 02:26:33;;;;;;;3.67;3.08;;;;;20.70;98665.00;;;;2065730;28;20587;-47
2022/11/23 02:27:33;;;;;;;3.63;2.60;;;;;20.80;98672.00;;;;2070818;28;20224;-48
2022/11/23 02:28:40;;;;;;;2.80;2.10;;;;;20.80;98667.00;;;;2071246;28;20237;-47
2022/11/23 02:29:41;;;;;;;3.97;2.95;;;;;20.80;98677.00;;;;2082622;28;20240;-49
2022/11/23 02:30:41;;;;;;;3.43;2.50;;;;;20.80;98672.00;;;;2079646;28;20225;-47
2022/11/23 02:31:41;;;;;;;3.83;2.60;;;;;20.80;98673.00;;;;2079235;28;20213;-49
2022/11/23 02:32:42;;;;;;;3.40;2.43;;;;;20.80;98671.00;;;;2087027;28;20220;-49
2022/11/23 02:33:42;;;;;;;3.33;2.40;;;;;20.80;98675.00;;;;2087864;28;20236;-48
2022/11/23 02:34:42;;;;;;;3.20;2.30;;;;;20.80;98674.00;;;;2087782;28;20258;-47
2022/11/23 02:35:50;;;;;;;4.07;2.70;;;;;20.80;98664.00;;;;2088439;28;20212;-49
2022/11/23 02:36:52;;;;;;;3.05;2.10;;;;;20.70;98671.00;;;;2088306;28;20232;-49
2022/11/23 02:37:52;;;;;;;3.30;2.22;;;;;20.70;98675.00;;;;2079975;28;20590;-49
2022/11/23 02:38:53;;;;;;;3.27;2.07;;;;;20.70;98670.00;;;;2086826;28;20224;-48
2022/11/23 02:39:53;;;;;;;3.40;2.83;;;;;20.70;98677.00;;;;2071255;28;20222;-47
2022/11/23 02:40:54;;;;;;;4.43;2.40;;;;;20.70;98670.00;;;;2079518;28;20219;-48
2022/11/23 02:41:54;;;;;;;3.50;2.40;;;;;20.70;98645.00;;;;2083056;28;20209;-49
2022/11/23 02:42:55;;;;;;;2.50;2.30;;;;;20.70;98680.00;;;;2087203;28;20212;-49
2022/11/23 02:43:55;;;;;;;2.90;2.30;;;;;20.70;98671.00;;;;2080213;28;20316;-47
2022/11/23 02:44:59;;;;;;;3.30;2.10;;;;;20.70;98668.00;;;;2079278;28;20244;-49
2022/11/23 02:46:00;;;;;;;3.10;1.95;;;;;20.70;98673.00;;;;2079385;28;20221;-48
2022/11/23 02:47:00;;;;;;;3.97;2.45;;;;;20.80;98677.00;;;;2079300;28;20259;-50
2022/11/23 02:48:01;;;;;;;3.87;2.20;;;;;20.70;98678.00;;;;2078978;28;20634;-47
2022/11/23 02:49:01;;;;;;;2.73;1.93;;;;;20.70;98683.00;;;;2079652;28;20705;-49
2022/11/23 02:50:01;;;;;;;2.43;1.90;;;;;20.70;98680.00;;;;2080165;28;20206;-48
2022/11/23 02:51:02;;;;;;;2.93;2.10;;;;;20.70;98684.00;;;;2088473;28;20220;-47
2022/11/23 02:52:03;;;;;;;3.30;1.70;;;;;20.70;98681.00;;;;2085606;28;20223;-50
2022/11/23 02:53:03;;;;;;;2.85;2.15;;;;;20.70;98679.00;;;;2080134;28;21178;-48
2022/11/23 02:54:04;;;;;;;3.00;1.93;;;;;20.70;98686.00;;;;2079964;28;20274;-48
2022/11/23 02:55:04;;;;;;;2.80;1.83;;;;;20.70;98678.00;;;;2080887;28;20210;-48
2022/11/23 02:56:05;;;;;;;3.23;2.03;;;;;20.70;98683.00;;;;2081882;28;20872;-49
2022/11/23 02:57:05;;;;;;;2.97;1.80;;;;;20.70;98679.00;;;;2088275;28;20217;-50
2022/11/23 02:58:05;;;;;;;2.07;1.87;;;;;20.70;98686.00;;;;2087928;28;20658;-50
2022/11/23 02:59:06;;;;;;;2.60;2.07;;;;;20.70;98691.00;;;;2082935;28;20221;-49
2022/11/23 03:00:07;;;;;;;3.87;2.20;;;;;20.70;98684.00;;;;2085279;28;20216;-49
2022/11/23 03:01:07;;;;;;;2.17;1.53;;;;;20.70;98689.00;;;;2087595;28;20213;-49
2022/11/23 03:02:07;;;;;;;2.77;2.00;;;;;20.70;98686.00;;;;2079651;28;21311;-50
2022/11/23 03:03:08;;;;;;;2.63;2.00;;;;;20.70;98687.00;;;;2079991;28;20217;-48
2022/11/23 03:04:09;;;;;;;3.17;2.20;;;;;20.60;98688.00;;;;2080976;28;20214;-47
2022/11/23 03:05:09;;;;;;;3.28;1.92;;;;;20.60;98678.00;;;;2088311;28;20217;-49
2022/11/23 03:06:10;;;;;;;2.87;1.90;;;;;20.70;98682.00;;;;2088346;28;20213;-48
2022/11/23 03:07:10;;;;;;;2.90;1.90;;;;;20.70;98683.00;;;;2088123;28;20216;-49
2022/11/23 03:08:10;;;;;;;2.30;1.60;;;;;20.60;98682.00;;;;2088143;28;20588;-48
2022/11/23 03:09:11;;;;;;;2.63;1.80;;;;;20.70;98692.00;;;;2087991;28;20307;-50
2022/11/23 03:10:11;;;;;;;1.97;1.50;;;;;20.70;98689.00;;;;2081536;28;20225;-48
2022/11/23 03:11:11;;;;;;;2.87;1.50;;;;;20.60;98677.00;;;;2080006;28;20225;-50
2022/11/23 03:12:12;;;;;;;2.63;1.87;;;;;20.70;98683.00;;;;2079009;28;20213;-49
2022/11/23 03:13:12;;;;;;;2.50;1.80;;;;;20.70;98689.00;;;;2078666;28;20214;-48
2022/11/23 03:14:12;;;;;;;2.20;1.93;;;;;20.70;98690.00;;;;2079591;28;20684;-47
2022/11/23 03:15:13;;;;;;;3.20;1.90;;;;;20.70;98687.00;;;;2079046;28;20743;-49
2022/11/23 03:16:13;;;;;;;4.00;2.27;;;;;20.70;98702.00;;;;2080616;28;20667;-49
2022/11/23 03:17:13;;;;;;;1.70;1.40;;;;;20.70;98686.00;;;;2087301;28;20251;-49
2022/11/23 03:18:14;;;;;;;2.50;1.33;;;;;20.60;98690.00;;;;2087366;28;20209;-49
2022/11/23 03:19:14;;;;;;;2.50;1.80;;;;;20.60;98695.00;;;;2088108;28;20304;-50
2022/11/23 03:20:15;;;;;;;2.60;1.73;;;;;20.60;98689.00;;;;2087874;28;20213;-48
2022/11/23 03:21:15;;;;;;;2.90;1.80;;;;;20.70;98694.00;;;;2088147;28;20283;-50
2022/11/23 03:22:16;;;;;;;2.20;1.77;;;;;20.60;98700.00;;;;2087237;28;20205;-48
2022/11/23 03:23:16;;;;;;;3.00;1.60;;;;;20.60;98704.00;;;;2088025;28;20293;-49
2022/11/23 03:24:16;;;;;;;2.13;1.50;;;;;20.60;98700.00;;;;2088015;28;20236;-49
2022/11/23 03:25:17;;;;;;;1.80;1.30;;;;;20.60;98705.00;;;;2087900;28;20217;-49
2022/11/23 03:26:17;;;;;;;2.00;1.60;;;;;20.60;98695.00;;;;2087672;28;20580;-48
2022/11/23 03:27:17;;;;;;;3.00;1.67;;;;;20.60;98702.00;;;;2088060;28;20581;-48
2022/11/23 03:28:18;;;;;;;2.97;1.70;;;;;20.60;98699.00;;;;2087342;28;20843;-47
2022/11/23 03:29:18;;;;;;;4.00;1.77;;;;;20.60;98705.00;;;;2087672;28;20235;-47
2022/11/23 03:30:18;;;;;;;3.13;1.63;;;;;20.60;98703.00;;;;2088178;28;20217;-48
2022/11/23 03:31:19;;;;;;;2.37;1.40;;;;;20.60;98703.00;;;;2087908;28;20776;-49
2022/11/23 03:32:19;;;;;;;2.53;1.73;;;;;20.60;98702.00;;;;2087252;28;20216;-49
2022/11/23 03:33:19;;;;;;;3.40;1.53;;;;;20.60;98706.00;;;;2087842;28;20223;-48
2022/11/23 03:34:20;;;;;;;2.17;1.30;;;;;20.60;98702.00;;;;2087355;28;20222;-48
2022/11/23 03:35:20;;;;;;;2.27;1.50;;;;;20.60;98701.00;;;;2087469;28;20204;-48
2022/11/23 03:36:20;;;;;;;1.93;1.30;;;;;20.60;98703.00;;;;2084097;28;20209;-48
2022/11/23 03:37:21;;;;;;;2.70;1.70;;;;;20.60;98702.00;;;;2079056;28;20278;-48
2022/11/23 03:38:21;;;;;;;1.70;1.00;;;;;20.60;98709.00;;;;2079436;28;20221;-50
2022/11/23 03:39:21;;;;;;;2.87;1.90;;;;;20.60;98706.00;;;;2079906;28;20225;-48
2022/11/23 03:40:22;;;;;;;1.73;1.43;;;;;20.60;98698.00;;;;2080055;28;20224;-48
2022/11/23 03:41:22;;;;;;;2.20;1.20;;;;;20.60;98706.00;;;;2079883;28;20210;-48
2022/11/23 03:42:22;;;;;;;1.70;1.10;;;;;20.60;98701.00;;;;2078820;28;20213;-47
2022/11/23 03:43:23;;;;;;;3.57;1.10;;;;;20.60;98709.00;;;;2079532;28;20555;-47
2022/11/23 03:44:23;;;;;;;2.93;1.20;;;;;20.60;98706.00;;;;2086115;28;20274;-50
2022/11/23 03:45:24;;;;;;;2.53;1.73;;;;;20.60;98708.00;;;;2087910;28;20217;-49
2022/11/23 03:46:24;;;;;;;2.17;1.50;;;;;20.60;98711.00;;;;2079761;28;20217;-50
2022/11/23 03:47:24;;;;;;;2.13;1.33;;;;;20.60;98715.00;;;;2079472;28;20256;-49
2022/11/23 03:48:25;;;;;;;2.50;1.70;;;;;20.60;98701.00;;;;2079778;28;20225;-48
2022/11/23 03:49:25;;;;;;;1.87;1.23;;;;;20.60;98703.00;;;;2083357;28;20213;-48
2022/11/23 03:50:25;;;;;;;2.17;1.43;;;;;20.60;98701.00;;;;2087998;28;20240;-49
2022/11/23 03:51:26;;;;;;;2.00;1.30;;;;;20.60;98699.00;;;;2088006;28;20223;-49
2022/11/23 03:52:26;;;;;;;1.70;1.10;;;;;20.60;98708.00;;;;2080664;28;20229;-48
2022/11/23 03:53:26;;;;;;;2.83;1.20;;;;;20.60;98704.00;;;;2079876;28;20228;-49
2022/11/23 03:54:27;;;;;;;2.50;1.80;;;;;20.60;98703.00;;;;2079502;28;20348;-48
2022/11/23 03:55:27;;;;;;;1.60;1.20;;;;;20.60;98700.00;;;;2083284;28;20216;-47
2022/11/23 03:56:27;;;;;;;2.90;1.33;;;;;20.60;98696.00;;;;2079232;28;20213;-48
2022/11/23 03:57:28;;;;;;;1.70;1.20;;;;;20.60;98701.00;;;;2079431;28;20304;-48
2022/11/23 03:58:28;;;;;;;2.97;1.40;;;;;20.60;98703.00;;;;2073731;28;20711;-50
2022/11/23 03:59:28;;;;;;;2.00;1.30;;;;;20.60;98699.00;;;;2086913;28;20718;-52
2022/11/23 04:00:29;;;;;;;2.40;1.03;;;;;20.60;98696.00;;;;2082822;28;20811;-51
2022/11/23 04:01:29;;;;;;;2.33;1.13;;;;;20.50;98704.00;;;;2079019;28;20779;-50
2022/11/23 04:02:29;;;;;;;2.10;1.33;;;;;20.50;98694.00;;;;2078081;28;20209;-48
2022/11/23 04:03:30;;;;;;;2.20;1.30;;;;;20.50;98699.00;;;;2079557;28;20226;-47
2022/11/23 04:04:30;;;;;;;2.73;1.30;;;;;20.60;98700.00;;;;2079496;28;20217;-48
2022/11/23 04:05:30;;;;;;;2.83;1.53;;;;;20.50;98700.00;;;;2079109;28;20225;-49
2022/11/23 04:06:31;;;;;;;1.70;1.30;;;;;20.50;98695.00;;;;2078882;28;20673;-49
2022/11/23 04:07:31;;;;;;;2.00;1.20;;;;;20.50;98687.00;;;;2079371;28;20221;-47
2022/11/23 04:08:31;;;;;;;1.73;1.30;;;;;20.50;98696.00;;;;2079556;28;20245;-48
2022/11/23 04:09:32;;;;;;;1.93;1.03;;;;;20.60;98695.00;;;;2079443;28;20229;-48
2022/11/23 04:10:32;;;;;;;2.30;1.20;;;;;20.60;98704.00;;;;2079770;28;20209;-48
2022/11/23 04:11:32;;;;;;;1.63;0.90;;;;;20.50;98698.00;;;;2079596;28;20263;-47
2022/11/23 04:12:33;;;;;;;4.27;1.47;;;;;20.50;98697.00;;;;2078825;28;20389;-47
2022/11/23 04:13:33;;;;;;;2.03;1.20;;;;;20.60;98704.00;;;;2079098;28;20251;-50
2022/11/23 04:14:33;;;;;;;1.83;1.33;;;;;20.60;98703.00;;;;2072988;28;20248;-50
2022/11/23 04:15:34;;;;;;;2.00;1.17;;;;;20.60;98703.00;;;;2079508;28;20217;-49
2022/11/23 04:16:34;;;;;;;2.70;1.20;;;;;20.50;98703.00;;;;2079473;28;20217;-50
2022/11/23 04:17:34;;;;;;;1.50;1.10;;;;;20.50;98704.00;;;;2079658;28;20228;-49
2022/11/23 04:18:35;;;;;;;2.80;1.27;;;;;20.50;98708.00;;;;2074482;28;20328;-48
2022/11/23 04:19:35;;;;;;;1.27;0.87;;;;;20.50;98712.00;;;;2079192;28;20221;-49
2022/11/23 04:20:35;;;;;;;2.23;1.20;;;;;20.50;98709.00;;;;2079557;28;20580;-50
2022/11/23 04:21:36;;;;;;;3.10;1.27;;;;;20.50;98707.00;;;;2079663;28;20229;-49
2022/11/23 04:22:36;;;;;;;1.67;0.90;;;;;20.50;98704.00;;;;2077624;28;20233;-49
2022/11/23 04:23:36;;;;;;;2.03;1.10;;;;;20.50;98703.00;;;;2079514;28;20214;-48
2022/11/23 04:24:37;;;;;;;2.23;1.40;;;;;20.50;98702.00;;;;2079223;28;20225;-48
2022/11/23 04:25:37;;;;;;;2.37;1.43;;;;;20.50;98709.00;;;;2079432;28;20226;-48
2022/11/23 04:26:39;;;;;;;1.83;1.27;;;;;20.50;98708.00;;;;2079104;28;20213;-48
2022/11/23 04:27:39;;;;;;;1.83;1.10;;;;;20.50;98708.00;;;;2078995;28;20209;-48
2022/11/23 04:28:39;;;;;;;3.10;1.10;;;;;20.50;98694.00;;;;2079307;28;20217;-49
2022/11/23 04:29:40;;;;;;;2.30;1.20;;;;;20.50;98699.00;;;;2079468;28;20206;-49
2022/11/23 04:30:40;;;;;;;2.63;1.33;;;;;20.50;98700.00;;;;2079127;28;20232;-50
2022/11/23 04:31:40;;;;;;;1.67;0.93;;;;;20.50;98704.00;;;;2079212;28;20209;-48
2022/11/23 04:32:43;;;;;;;1.90;1.13;;;;;20.50;98707.00;;;;2078592;28;20201;-49
2022/11/23 04:33:44;;;;;;;2.60;1.23;;;;;20.50;98711.00;;;;2079407;28;20788;-47
2022/11/23 04:34:44;;;;;;;2.43;1.23;;;;;20.50;98707.00;;;;2079665;28;20224;-50
2022/11/23 04:35:44;;;;;;;3.13;1.20;;;;;20.50;98711.00;;;;2079113;28;20258;-49
2022/11/23 04:36:45;;;;;;;1.90;0.87;;;;;20.50;98706.00;;;;2079530;28;20224;-48
2022/11/23 04:37:45;;;;;;;1.97;0.90;;;;;20.50;98701.00;;;;2079145;28;20239;-50
2022/11/23 04:38:45;;;;;;;3.10;0.80;;;;;20.50;98700.00;;;;2079050;28;20228;-47
2022/11/23 04:39:46;;;;;;;1.60;1.00;;;;;20.50;98708.00;;;;2079260;28;20214;-49
2022/11/23 04:40:47;;;;;;;1.47;1.00;;;;;20.40;98712.00;;;;2078940;28;20256;-49
2022/11/23 04:41:47;;;;;;;2.08;1.05;;;;;20.50;98711.00;;;;2078359;28;20217;-49
2022/11/23 04:42:48;;;;;;;1.27;0.87;;;;;20.50;98711.00;;;;2079075;28;20792;-48
2022/11/23 04:43:48;;;;;;;1.70;1.00;;;;;20.50;98711.00;;;;2078773;28;20606;-48
2022/11/23 04:44:48;;;;;;;2.27;1.17;;;;;20.50;98710.00;;;;2079188;28;20217;-47
2022/11/23 04:45:49;;;;;;;1.73;0.80;;;;;20.40;98719.00;;;;2079188;28;20697;-50
2022/11/23 04:46:49;;;;;;;4.63;1.30;;;;;20.40;98718.00;;;;2079137;28;20201;-48
2022/11/23 04:47:50;;;;;;;1.67;1.10;;;;;20.50;98714.00;;;;2079061;28;20688;-47
2022/11/23 04:48:50;;;;;;;2.17;1.10;;;;;20.40;98718.00;;;;2079269;28;20210;-48
2022/11/23 04:49:50;;;;;;;2.63;1.20;;;;;20.40;98715.00;;;;2079016;28;20214;-48
2022/11/23 04:50:51;;;;;;;2.40;1.33;;;;;20.40;98706.00;;;;2079357;28;20236;-47
2022/11/23 04:51:51;;;;;;;2.47;1.10;;;;;20.50;98714.00;;;;2077189;28;20706;-50
2022/11/23 04:52:51;;;;;;;1.73;1.10;;;;;20.50;98724.00;;;;2077149;28;20631;-48
2022/11/23 04:53:52;;;;;;;2.13;1.20;;;;;20.40;98712.00;;;;2078218;28;20252;-49
2022/11/23 04:54:52;;;;;;;2.23;1.07;;;;;20.40;98716.00;;;;2078870;28;20206;-47
2022/11/23 04:55:52;;;;;;;2.80;1.27;;;;;20.50;98710.00;;;;2080322;28;20267;-48
2022/11/23 04:56:53;;;;;;;8.53;1.47;;;;;20.40;98709.00;;;;2078693;28;20256;-47
2022/11/23 04:57:53;;;;;;;5.27;1.10;;;;;20.50;98710.00;;;;2078557;28;20221;-49
2022/11/23 04:58:53;;;;;;;4.13;1.17;;;;;20.60;98711.00;;;;2078808;28;20217;-49
2022/11/23 04:59:54;;;;;;;2.70;1.20;;;;;20.60;98709.00;;;;2078358;28;20253;-48
2022/11/23 05:00:55;;;;;;;4.43;1.20;;;;;20.60;98711.00;;;;2078834;28;20213;-48
2022/11/23 05:01:56;;;;;;;4.47;1.05;;;;;20.60;98707.00;;;;2077157;28;20404;-50
2022/11/23 05:02:59;;;;;;;4.53;1.33;;;;;20.60;98710.00;;;;2081322;28;20210;-49
2022/11/23 05:04:00;;;;;;;2.20;0.90;;;;;20.60;98707.00;;;;2078907;28;20669;-49
2022/11/23 05:05:00;;;;;;;1.97;1.03;;;;;20.60;98709.00;;;;2081323;28;20212;-49
2022/11/23 05:06:01;;;;;;;4.43;1.20;;;;;20.60;98713.00;;;;2085827;28;20260;-47